Aviation Digital Data Service (ADDS)

Output produced by TAFs form (2040 UTC 16 December 2017)
found at http://www.aviationweather.gov/adds/tafs/
 
KATL 161952Z VRB03KT 10SM BKN250 11/M02 A3024 RMK AO2 SLP245 T01111022
KATL 161946Z 1620/1724 28005KT P6SM SCT250 
     FM171000 13004KT P6SM SCT080 SCT150 BKN250 
     FM171500 15006KT P6SM SCT040 BKN080 
     FM171800 14006KT P6SM BKN035 BKN080 
     PROB30 1719/1723 5SM -SHRA OVC020